sensor_id;sensor_type;location;lat;lon;timestamp;temperature;humidity
29003;DHT22;16102;57.138;-2.118;2022-11-20T00:00:54;8.30;99.90
29003;DHT22;16102;57.138;-2.118;2022-11-20T00:03:21;8.40;99.90
29003;DHT22;16102;57.138;-2.118;2022-11-20T00:05:49;8.40;99.90
29003;DHT22;16102;57.138;-2.118;2022-11-20T00:08:15;8.40;99.90
29003;DHT22;16102;57.138;-2.118;2022-11-20T00:10:42;8.30;99.90
29003;DHT22;16102;57.138;-2.118;2022-11-20T00:13:09;8.30;99.90
29003;DHT22;16102;57.138;-2.118;2022-11-20T00:15:36;8.30;99.90
29003;DHT22;16102;57.138;-2.118;2022-11-20T00:18:03;8.30;99.90
29003;DHT22;16102;57.138;-2.118;2022-11-20T00:20:30;8.30;99.90
29003;DHT22;16102;57.138;-2.118;2022-11-20T00:22:57;8.30;99.90
29003;DHT22;16102;57.138;-2.118;2022-11-20T00:25:24;8.40;99.90
29003;DHT22;16102;57.138;-2.118;2022-11-20T00:27:51;8.30;99.90
29003;DHT22;16102;57.138;-2.118;2022-11-20T00:30:18;8.30;99.90
29003;DHT22;16102;57.138;-2.118;2022-11-20T00:32:45;8.30;99.90
29003;DHT22;16102;57.138;-2.118;2022-11-20T00:35:11;8.30;95.30
29003;DHT22;16102;57.138;-2.118;2022-11-20T00:37:38;8.30;92.00
29003;DHT22;16102;57.138;-2.118;2022-11-20T00:40:06;8.30;98.80
29003;DHT22;16102;57.138;-2.118;2022-11-20T00:42:33;8.30;99.90
29003;DHT22;16102;57.138;-2.118;2022-11-20T00:45:00;8.30;96.90
29003;DHT22;16102;57.138;-2.118;2022-11-20T00:47:27;8.30;98.90
29003;DHT22;16102;57.138;-2.118;2022-11-20T00:49:54;8.40;96.00
29003;DHT22;16102;57.138;-2.118;2022-11-20T00:52:21;8.40;70.30
29003;DHT22;16102;57.138;-2.118;2022-11-20T00:54:47;8.30;61.70
29003;DHT22;16102;57.138;-2.118;2022-11-20T00:57:14;8.40;62.40
29003;DHT22;16102;57.138;-2.118;2022-11-20T00:59:41;8.40;50.90
29003;DHT22;16102;57.138;-2.118;2022-11-20T01:02:08;8.40;46.20
29003;DHT22;16102;57.138;-2.118;2022-11-20T01:04:36;8.40;52.00
29003;DHT22;16102;57.138;-2.118;2022-11-20T01:07:03;8.40;40.70
29003;DHT22;16102;57.138;-2.118;2022-11-20T01:09:30;8.40;28.60
29003;DHT22;16102;57.138;-2.118;2022-11-20T01:11:57;8.50;7.90
29003;DHT22;16102;57.138;-2.118;2022-11-20T01:14:25;8.50;2.60
29003;DHT22;16102;57.138;-2.118;2022-11-20T01:16:52;8.50;1.00
29003;DHT22;16102;57.138;-2.118;2022-11-20T01:19:22;8.50;17.60
29003;DHT22;16102;57.138;-2.118;2022-11-20T01:21:52;8.50;1.00
29003;DHT22;16102;57.138;-2.118;2022-11-20T01:24:20;8.50;1.00
29003;DHT22;16102;57.138;-2.118;2022-11-20T01:26:49;8.50;1.00
29003;DHT22;16102;57.138;-2.118;2022-11-20T01:29:21;8.50;1.00
29003;DHT22;16102;57.138;-2.118;2022-11-20T01:31:50;8.50;1.00
29003;DHT22;16102;57.138;-2.118;2022-11-20T01:34:20;8.50;1.00
29003;DHT22;16102;57.138;-2.118;2022-11-20T01:36:47;8.50;1.00
29003;DHT22;16102;57.138;-2.118;2022-11-20T01:39:23;8.50;1.00
29003;DHT22;16102;57.138;-2.118;2022-11-20T01:41:51;8.50;1.00
29003;DHT22;16102;57.138;-2.118;2022-11-20T01:44:57;8.60;1.00
29003;DHT22;16102;57.138;-2.118;2022-11-20T01:50:05;8.60;1.00
29003;DHT22;16102;57.138;-2.118;2022-11-20T01:52:45;8.60;1.00
29003;DHT22;16102;57.138;-2.118;2022-11-20T01:55:19;8.60;1.00
29003;DHT22;16102;57.138;-2.118;2022-11-20T01:57:49;8.60;1.00
29003;DHT22;16102;57.138;-2.118;2022-11-20T02:00:20;8.60;1.00
29003;DHT22;16102;57.138;-2.118;2022-11-20T02:02:51;8.60;1.00
29003;DHT22;16102;57.138;-2.118;2022-11-20T02:07:50;8.60;1.00
29003;DHT22;16102;57.138;-2.118;2022-11-20T02:10:19;8.60;1.00
29003;DHT22;16102;57.138;-2.118;2022-11-20T02:12:47;8.60;1.00
29003;DHT22;16102;57.138;-2.118;2022-11-20T02:15:33;8.60;1.00
29003;DHT22;16102;57.138;-2.118;2022-11-20T02:18:00;8.60;1.00
29003;DHT22;16102;57.138;-2.118;2022-11-20T02:20:28;8.70;1.00
29003;DHT22;16102;57.138;-2.118;2022-11-20T02:22:59;8.70;1.00
29003;DHT22;16102;57.138;-2.118;2022-11-20T02:25:28;8.70;1.00
29003;DHT22;16102;57.138;-2.118;2022-11-20T02:27:57;8.60;1.00
29003;DHT22;16102;57.138;-2.118;2022-11-20T02:30:24;8.60;1.00
29003;DHT22;16102;57.138;-2.118;2022-11-20T02:32:51;8.60;1.00
29003;DHT22;16102;57.138;-2.118;2022-11-20T02:37:48;8.60;1.00
29003;DHT22;16102;57.138;-2.118;2022-11-20T02:40:16;8.60;1.00
29003;DHT22;16102;57.138;-2.118;2022-11-20T02:42:43;8.60;1.00
29003;DHT22;16102;57.138;-2.118;2022-11-20T02:45:11;8.60;1.00
29003;DHT22;16102;57.138;-2.118;2022-11-20T02:47:38;8.60;1.00
29003;DHT22;16102;57.138;-2.118;2022-11-20T02:50:05;8.60;1.00
29003;DHT22;16102;57.138;-2.118;2022-11-20T02:52:32;8.60;1.00
29003;DHT22;16102;57.138;-2.118;2022-11-20T02:54:59;8.60;1.00
29003;DHT22;16102;57.138;-2.118;2022-11-20T02:57:27;8.60;1.00
29003;DHT22;16102;57.138;-2.118;2022-11-20T02:59:54;8.60;1.00
29003;DHT22;16102;57.138;-2.118;2022-11-20T03:02:21;8.60;1.00
29003;DHT22;16102;57.138;-2.118;2022-11-20T03:04:48;8.60;1.00
29003;DHT22;16102;57.138;-2.118;2022-11-20T03:07:15;8.60;1.00
29003;DHT22;16102;57.138;-2.118;2022-11-20T03:09:42;8.60;1.00
29003;DHT22;16102;57.138;-2.118;2022-11-20T03:12:09;8.60;1.00
29003;DHT22;16102;57.138;-2.118;2022-11-20T03:14:35;8.60;1.00
29003;DHT22;16102;57.138;-2.118;2022-11-20T03:17:02;8.60;1.00
29003;DHT22;16102;57.138;-2.118;2022-11-20T03:19:29;8.60;1.00
29003;DHT22;16102;57.138;-2.118;2022-11-20T03:21:56;8.60;1.00
29003;DHT22;16102;57.138;-2.118;2022-11-20T03:24:23;8.60;1.00
29003;DHT22;16102;57.138;-2.118;2022-11-20T03:26:50;8.60;1.00
29003;DHT22;16102;57.138;-2.118;2022-11-20T03:29:17;8.60;1.00
29003;DHT22;16102;57.138;-2.118;2022-11-20T03:31:45;8.60;1.00
29003;DHT22;16102;57.138;-2.118;2022-11-20T03:34:12;8.60;1.00
29003;DHT22;16102;57.138;-2.118;2022-11-20T03:36:41;8.60;1.00
29003;DHT22;16102;57.138;-2.118;2022-11-20T03:39:09;8.60;1.00
29003;DHT22;16102;57.138;-2.118;2022-11-20T03:41:38;8.60;1.00
29003;DHT22;16102;57.138;-2.118;2022-11-20T03:44:08;8.70;1.00
29003;DHT22;16102;57.138;-2.118;2022-11-20T03:46:35;8.60;1.00
29003;DHT22;16102;57.138;-2.118;2022-11-20T03:49:03;8.60;1.00
29003;DHT22;16102;57.138;-2.118;2022-11-20T03:51:32;8.60;1.00
29003;DHT22;16102;57.138;-2.118;2022-11-20T03:54:02;8.60;1.00
29003;DHT22;16102;57.138;-2.118;2022-11-20T03:56:34;8.60;1.00
29003;DHT22;16102;57.138;-2.118;2022-11-20T03:59:02;8.50;1.00
29003;DHT22;16102;57.138;-2.118;2022-11-20T04:01:31;8.50;1.00
29003;DHT22;16102;57.138;-2.118;2022-11-20T04:03:59;8.40;1.00
29003;DHT22;16102;57.138;-2.118;2022-11-20T04:06:33;8.10;1.00
29003;DHT22;16102;57.138;-2.118;2022-11-20T04:09:00;7.90;1.00
29003;DHT22;16102;57.138;-2.118;2022-11-20T04:11:29;7.80;99.90
29003;DHT22;16102;57.138;-2.118;2022-11-20T04:13:59;7.60;99.90
29003;DHT22;16102;57.138;-2.118;2022-11-20T04:16:29;7.60;99.90
29003;DHT22;16102;57.138;-2.118;2022-11-20T04:18:58;7.60;99.90
29003;DHT22;16102;57.138;-2.118;2022-11-20T04:21:26;7.60;99.90
29003;DHT22;16102;57.138;-2.118;2022-11-20T04:23:53;7.60;99.90
29003;DHT22;16102;57.138;-2.118;2022-11-20T04:26:22;7.40;99.90
29003;DHT22;16102;57.138;-2.118;2022-11-20T04:28:50;7.30;99.90
29003;DHT22;16102;57.138;-2.118;2022-11-20T04:31:19;7.30;99.90
29003;DHT22;16102;57.138;-2.118;2022-11-20T04:33:46;6.90;1.00
29003;DHT22;16102;57.138;-2.118;2022-11-20T04:36:25;8.50;99.90
29003;DHT22;16102;57.138;-2.118;2022-11-20T04:38:56;8.50;99.90
29003;DHT22;16102;57.138;-2.118;2022-11-20T04:41:26;8.60;99.90
29003;DHT22;16102;57.138;-2.118;2022-11-20T04:43:55;8.90;99.90
29003;DHT22;16102;57.138;-2.118;2022-11-20T04:46:33;8.80;99.90
29003;DHT22;16102;57.138;-2.118;2022-11-20T04:49:01;8.80;99.90
29003;DHT22;16102;57.138;-2.118;2022-11-20T04:51:28;8.50;99.90
29003;DHT22;16102;57.138;-2.118;2022-11-20T04:53:55;8.60;99.90
29003;DHT22;16102;57.138;-2.118;2022-11-20T04:56:22;8.70;99.90
29003;DHT22;16102;57.138;-2.118;2022-11-20T04:58:50;8.80;99.90
29003;DHT22;16102;57.138;-2.118;2022-11-20T05:01:22;8.80;99.90
29003;DHT22;16102;57.138;-2.118;2022-11-20T05:03:50;8.90;99.90
29003;DHT22;16102;57.138;-2.118;2022-11-20T05:06:19;9.10;99.90
29003;DHT22;16102;57.138;-2.118;2022-11-20T05:08:47;9.10;99.90
29003;DHT22;16102;57.138;-2.118;2022-11-20T05:11:16;9.10;99.90
29003;DHT22;16102;57.138;-2.118;2022-11-20T05:13:43;9.10;99.90
29003;DHT22;16102;57.138;-2.118;2022-11-20T05:16:16;8.90;99.90
29003;DHT22;16102;57.138;-2.118;2022-11-20T05:18:44;9.00;99.90
29003;DHT22;16102;57.138;-2.118;2022-11-20T05:21:12;8.90;99.90
29003;DHT22;16102;57.138;-2.118;2022-11-20T05:23:39;9.00;99.90
29003;DHT22;16102;57.138;-2.118;2022-11-20T05:26:11;9.00;99.90
29003;DHT22;16102;57.138;-2.118;2022-11-20T05:28:39;9.00;99.90
29003;DHT22;16102;57.138;-2.118;2022-11-20T05:31:06;8.80;99.90
29003;DHT22;16102;57.138;-2.118;2022-11-20T05:33:35;8.80;99.90
29003;DHT22;16102;57.138;-2.118;2022-11-20T05:36:03;8.80;99.90
29003;DHT22;16102;57.138;-2.118;2022-11-20T05:38:30;8.80;99.90
29003;DHT22;16102;57.138;-2.118;2022-11-20T05:41:11;9.00;99.90
29003;DHT22;16102;57.138;-2.118;2022-11-20T05:43:39;9.00;99.90
29003;DHT22;16102;57.138;-2.118;2022-11-20T05:46:08;9.00;99.90
29003;DHT22;16102;57.138;-2.118;2022-11-20T05:48:37;9.00;99.90
29003;DHT22;16102;57.138;-2.118;2022-11-20T05:51:07;9.00;99.90
29003;DHT22;16102;57.138;-2.118;2022-11-20T05:53:36;9.00;99.90
29003;DHT22;16102;57.138;-2.118;2022-11-20T05:56:07;9.00;99.90
29003;DHT22;16102;57.138;-2.118;2022-11-20T05:58:34;9.00;99.90
29003;DHT22;16102;57.138;-2.118;2022-11-20T06:01:09;8.90;99.90
29003;DHT22;16102;57.138;-2.118;2022-11-20T06:03:36;8.80;99.90
29003;DHT22;16102;57.138;-2.118;2022-11-20T06:06:05;8.80;99.90
29003;DHT22;16102;57.138;-2.118;2022-11-20T06:08:32;8.70;99.90
29003;DHT22;16102;57.138;-2.118;2022-11-20T06:11:04;8.60;99.90
29003;DHT22;16102;57.138;-2.118;2022-11-20T06:13:31;8.60;99.90
29003;DHT22;16102;57.138;-2.118;2022-11-20T06:15:58;8.60;99.90
29003;DHT22;16102;57.138;-2.118;2022-11-20T06:18:27;8.40;99.90
29003;DHT22;16102;57.138;-2.118;2022-11-20T06:21:09;8.50;99.90
29003;DHT22;16102;57.138;-2.118;2022-11-20T06:23:37;8.40;99.90
29003;DHT22;16102;57.138;-2.118;2022-11-20T06:26:06;8.40;99.90
29003;DHT22;16102;57.138;-2.118;2022-11-20T06:28:34;8.40;99.90
29003;DHT22;16102;57.138;-2.118;2022-11-20T06:31:01;8.40;99.90
29003;DHT22;16102;57.138;-2.118;2022-11-20T06:33:29;8.40;99.90
29003;DHT22;16102;57.138;-2.118;2022-11-20T06:35:57;8.40;99.90
29003;DHT22;16102;57.138;-2.118;2022-11-20T06:38:29;8.40;99.90
29003;DHT22;16102;57.138;-2.118;2022-11-20T06:40:56;8.40;99.90
29003;DHT22;16102;57.138;-2.118;2022-11-20T06:43:24;8.40;99.90
29003;DHT22;16102;57.138;-2.118;2022-11-20T06:45:55;8.40;99.90
29003;DHT22;16102;57.138;-2.118;2022-11-20T06:48:24;8.50;99.90
29003;DHT22;16102;57.138;-2.118;2022-11-20T06:50:51;8.50;99.90
29003;DHT22;16102;57.138;-2.118;2022-11-20T06:53:18;8.50;99.90
29003;DHT22;16102;57.138;-2.118;2022-11-20T06:55:46;8.50;99.90
29003;DHT22;16102;57.138;-2.118;2022-11-20T06:58:15;8.50;99.90
29003;DHT22;16102;57.138;-2.118;2022-11-20T07:00:43;8.30;99.90
29003;DHT22;16102;57.138;-2.118;2022-11-20T07:03:12;8.30;99.90
29003;DHT22;16102;57.138;-2.118;2022-11-20T07:05:39;8.30;99.90
29003;DHT22;16102;57.138;-2.118;2022-11-20T07:08:07;8.20;99.90
29003;DHT22;16102;57.138;-2.118;2022-11-20T07:10:34;8.20;99.90
29003;DHT22;16102;57.138;-2.118;2022-11-20T07:13:02;8.10;99.90
29003;DHT22;16102;57.138;-2.118;2022-11-20T07:15:29;8.10;99.90
29003;DHT22;16102;57.138;-2.118;2022-11-20T07:17:59;8.10;99.90
29003;DHT22;16102;57.138;-2.118;2022-11-20T07:20:26;8.00;99.90
29003;DHT22;16102;57.138;-2.118;2022-11-20T07:22:57;8.10;99.90
29003;DHT22;16102;57.138;-2.118;2022-11-20T07:25:26;8.00;99.90
29003;DHT22;16102;57.138;-2.118;2022-11-20T07:27:59;8.10;99.90
29003;DHT22;16102;57.138;-2.118;2022-11-20T07:30:27;8.10;99.90
29003;DHT22;16102;57.138;-2.118;2022-11-20T07:32:55;8.10;99.90
29003;DHT22;16102;57.138;-2.118;2022-11-20T07:35:24;8.10;99.90
29003;DHT22;16102;57.138;-2.118;2022-11-20T07:37:51;8.10;99.90
29003;DHT22;16102;57.138;-2.118;2022-11-20T07:40:18;8.00;99.90
29003;DHT22;16102;57.138;-2.118;2022-11-20T07:42:50;8.00;99.90
29003;DHT22;16102;57.138;-2.118;2022-11-20T07:45:18;8.00;99.90
29003;DHT22;16102;57.138;-2.118;2022-11-20T07:47:46;8.00;99.90
29003;DHT22;16102;57.138;-2.118;2022-11-20T07:50:13;8.00;99.90
29003;DHT22;16102;57.138;-2.118;2022-11-20T07:52:40;7.90;99.90
29003;DHT22;16102;57.138;-2.118;2022-11-20T07:55:09;7.90;99.90
29003;DHT22;16102;57.138;-2.118;2022-11-20T07:57:36;7.90;99.90
29003;DHT22;16102;57.138;-2.118;2022-11-20T08:00:08;7.90;99.90
29003;DHT22;16102;57.138;-2.118;2022-11-20T08:02:39;8.00;99.90
29003;DHT22;16102;57.138;-2.118;2022-11-20T08:05:08;8.00;99.90
29003;DHT22;16102;57.138;-2.118;2022-11-20T08:07:40;7.90;99.90
29003;DHT22;16102;57.138;-2.118;2022-11-20T08:10:10;7.90;99.90
29003;DHT22;16102;57.138;-2.118;2022-11-20T08:12:45;8.00;99.90
29003;DHT22;16102;57.138;-2.118;2022-11-20T08:15:30;8.00;99.90
29003;DHT22;16102;57.138;-2.118;2022-11-20T08:18:09;8.00;99.90
29003;DHT22;16102;57.138;-2.118;2022-11-20T08:21:00;8.00;99.90
29003;DHT22;16102;57.138;-2.118;2022-11-20T08:23:27;8.00;99.90
29003;DHT22;16102;57.138;-2.118;2022-11-20T08:25:54;8.00;99.90
29003;DHT22;16102;57.138;-2.118;2022-11-20T08:28:21;8.00;99.90
29003;DHT22;16102;57.138;-2.118;2022-11-20T08:30:49;8.00;99.90
29003;DHT22;16102;57.138;-2.118;2022-11-20T08:33:17;7.70;99.90
29003;DHT22;16102;57.138;-2.118;2022-11-20T08:35:45;7.80;99.90
29003;DHT22;16102;57.138;-2.118;2022-11-20T08:38:12;7.70;99.90
29003;DHT22;16102;57.138;-2.118;2022-11-20T08:40:39;7.80;99.90
29003;DHT22;16102;57.138;-2.118;2022-11-20T08:43:06;7.80;99.90
29003;DHT22;16102;57.138;-2.118;2022-11-20T08:45:33;7.90;99.90
29003;DHT22;16102;57.138;-2.118;2022-11-20T08:48:02;7.90;99.90
29003;DHT22;16102;57.138;-2.118;2022-11-20T08:50:30;7.90;99.90
29003;DHT22;16102;57.138;-2.118;2022-11-20T08:53:04;7.80;99.90
29003;DHT22;16102;57.138;-2.118;2022-11-20T08:55:32;7.90;99.90
29003;DHT22;16102;57.138;-2.118;2022-11-20T08:58:03;8.00;99.90
29003;DHT22;16102;57.138;-2.118;2022-11-20T09:00:31;8.10;99.90
29003;DHT22;16102;57.138;-2.118;2022-11-20T09:02:59;8.10;99.90
29003;DHT22;16102;57.138;-2.118;2022-11-20T09:05:28;8.10;99.90
29003;DHT22;16102;57.138;-2.118;2022-11-20T09:07:58;8.00;99.90
29003;DHT22;16102;57.138;-2.118;2022-11-20T09:10:29;8.10;99.90
29003;DHT22;16102;57.138;-2.118;2022-11-20T09:12:56;8.00;99.90
29003;DHT22;16102;57.138;-2.118;2022-11-20T09:15:24;8.00;99.90
29003;DHT22;16102;57.138;-2.118;2022-11-20T09:17:58;8.00;99.90
29003;DHT22;16102;57.138;-2.118;2022-11-20T09:20:27;8.00;99.90
29003;DHT22;16102;57.138;-2.118;2022-11-20T09:22:58;8.00;99.90
29003;DHT22;16102;57.138;-2.118;2022-11-20T09:25:25;8.00;99.90
29003;DHT22;16102;57.138;-2.118;2022-11-20T09:27:59;8.00;99.90
29003;DHT22;16102;57.138;-2.118;2022-11-20T09:30:26;8.10;99.90
29003;DHT22;16102;57.138;-2.118;2022-11-20T09:32:54;8.20;99.90
29003;DHT22;16102;57.138;-2.118;2022-11-20T09:35:21;8.10;99.90
29003;DHT22;16102;57.138;-2.118;2022-11-20T09:37:48;8.20;99.90
29003;DHT22;16102;57.138;-2.118;2022-11-20T09:40:28;8.20;99.90
29003;DHT22;16102;57.138;-2.118;2022-11-20T09:54:25;8.40;99.90
29003;DHT22;16102;57.138;-2.118;2022-11-20T09:56:59;8.40;99.90
29003;DHT22;16102;57.138;-2.118;2022-11-20T09:59:43;8.40;99.90
29003;DHT22;16102;57.138;-2.118;2022-11-20T10:02:27;8.40;99.90
29003;DHT22;16102;57.138;-2.118;2022-11-20T10:07:47;8.40;99.90
29003;DHT22;16102;57.138;-2.118;2022-11-20T10:10:19;8.40;99.90
29003;DHT22;16102;57.138;-2.118;2022-11-20T10:18:43;8.50;99.90
29003;DHT22;16102;57.138;-2.118;2022-11-20T10:21:26;8.50;99.90
29003;DHT22;16102;57.138;-2.118;2022-11-20T10:30:02;8.50;99.90
29003;DHT22;16102;57.138;-2.118;2022-11-20T10:32:54;8.60;99.90
29003;DHT22;16102;57.138;-2.118;2022-11-20T10:35:36;8.60;99.90
29003;DHT22;16102;57.138;-2.118;2022-11-20T10:38:19;8.60;99.90
29003;DHT22;16102;57.138;-2.118;2022-11-20T10:40:57;8.70;99.90
29003;DHT22;16102;57.138;-2.118;2022-11-20T10:43:47;8.70;99.90
29003;DHT22;16102;57.138;-2.118;2022-11-20T10:46:19;8.70;99.90
29003;DHT22;16102;57.138;-2.118;2022-11-20T10:48:49;8.80;99.90
29003;DHT22;16102;57.138;-2.118;2022-11-20T10:51:35;8.80;99.90
29003;DHT22;16102;57.138;-2.118;2022-11-20T10:54:26;8.90;99.90
29003;DHT22;16102;57.138;-2.118;2022-11-20T10:57:10;8.90;99.90
29003;DHT22;16102;57.138;-2.118;2022-11-20T11:02:24;8.90;99.90
29003;DHT22;16102;57.138;-2.118;2022-11-20T11:05:51;8.90;99.90
29003;DHT22;16102;57.138;-2.118;2022-11-20T11:07:56;8.90;99.90
29003;DHT22;16102;57.138;-2.118;2022-11-20T11:10:42;9.30;99.90
29003;DHT22;16102;57.138;-2.118;2022-11-20T11:13:21;9.00;99.90
29003;DHT22;16102;57.138;-2.118;2022-11-20T11:15:49;8.90;99.90
29003;DHT22;16102;57.138;-2.118;2022-11-20T11:18:30;8.80;99.90
29003;DHT22;16102;57.138;-2.118;2022-11-20T11:21:01;8.90;99.90
29003;DHT22;16102;57.138;-2.118;2022-11-20T11:23:41;9.00;99.90
29003;DHT22;16102;57.138;-2.118;2022-11-20T11:26:21;9.00;99.90
29003;DHT22;16102;57.138;-2.118;2022-11-20T11:29:00;9.10;99.90
29003;DHT22;16102;57.138;-2.118;2022-11-20T11:31:32;9.10;99.90
29003;DHT22;16102;57.138;-2.118;2022-11-20T11:34:14;9.20;99.90
29003;DHT22;16102;57.138;-2.118;2022-11-20T11:36:49;9.20;99.90
29003;DHT22;16102;57.138;-2.118;2022-11-20T11:39:20;9.30;99.90
29003;DHT22;16102;57.138;-2.118;2022-11-20T11:41:48;9.30;99.90
29003;DHT22;16102;57.138;-2.118;2022-11-20T11:47:24;9.40;99.90
29003;DHT22;16102;57.138;-2.118;2022-11-20T11:55:40;9.50;99.90
29003;DHT22;16102;57.138;-2.118;2022-11-20T12:06:39;9.70;99.90
29003;DHT22;16102;57.138;-2.118;2022-11-20T12:09:10;9.80;99.90
29003;DHT22;16102;57.138;-2.118;2022-11-20T12:11:49;9.90;99.90
29003;DHT22;16102;57.138;-2.118;2022-11-20T12:14:34;10.00;99.90
29003;DHT22;16102;57.138;-2.118;2022-11-20T12:17:02;10.30;99.90
29003;DHT22;16102;57.138;-2.118;2022-11-20T12:19:31;10.80;99.90
29003;DHT22;16102;57.138;-2.118;2022-11-20T12:25:25;12.30;99.90
29003;DHT22;16102;57.138;-2.118;2022-11-20T12:30:24;14.30;99.90
29003;DHT22;16102;57.138;-2.118;2022-11-20T12:38:41;13.60;99.90
29003;DHT22;16102;57.138;-2.118;2022-11-20T12:44:40;11.50;99.90
29003;DHT22;16102;57.138;-2.118;2022-11-20T12:59:05;14.00;99.90
29003;DHT22;16102;57.138;-2.118;2022-11-20T13:01:47;14.60;99.90
29003;DHT22;16102;57.138;-2.118;2022-11-20T13:06:46;16.60;99.90
29003;DHT22;16102;57.138;-2.118;2022-11-20T13:09:18;17.60;99.90
29003;DHT22;16102;57.138;-2.118;2022-11-20T13:14:32;18.40;99.90
29003;DHT22;16102;57.138;-2.118;2022-11-20T13:19:54;15.40;99.90
29003;DHT22;16102;57.138;-2.118;2022-11-20T13:25:27;13.60;99.90
29003;DHT22;16102;57.138;-2.118;2022-11-20T13:27:56;15.00;99.90
29003;DHT22;16102;57.138;-2.118;2022-11-20T13:30:26;16.30;99.90
29003;DHT22;16102;57.138;-2.118;2022-11-20T13:33:08;17.30;99.90
29003;DHT22;16102;57.138;-2.118;2022-11-20T13:35:40;17.20;99.90
29003;DHT22;16102;57.138;-2.118;2022-11-20T13:38:14;18.10;99.90
29003;DHT22;16102;57.138;-2.118;2022-11-20T13:40:56;18.80;99.90
29003;DHT22;16102;57.138;-2.118;2022-11-20T13:46:12;19.90;99.90
29003;DHT22;16102;57.138;-2.118;2022-11-20T13:48:41;19.80;99.90
29003;DHT22;16102;57.138;-2.118;2022-11-20T13:51:49;18.60;99.90
29003;DHT22;16102;57.138;-2.118;2022-11-20T14:02:30;19.20;99.90
29003;DHT22;16102;57.138;-2.118;2022-11-20T14:04:58;19.30;99.90
29003;DHT22;16102;57.138;-2.118;2022-11-20T14:07:35;19.30;99.90
29003;DHT22;16102;57.138;-2.118;2022-11-20T14:10:05;18.90;99.90
29003;DHT22;16102;57.138;-2.118;2022-11-20T14:12:33;18.50;99.90
29003;DHT22;16102;57.138;-2.118;2022-11-20T14:15:00;18.20;99.90
29003;DHT22;16102;57.138;-2.118;2022-11-20T14:17:33;18.00;99.90
29003;DHT22;16102;57.138;-2.118;2022-11-20T14:20:12;17.80;99.90
29003;DHT22;16102;57.138;-2.118;2022-11-20T14:22:50;17.10;99.90
29003;DHT22;16102;57.138;-2.118;2022-11-20T14:27:49;15.50;99.90
29003;DHT22;16102;57.138;-2.118;2022-11-20T14:30:20;14.80;99.90
29003;DHT22;16102;57.138;-2.118;2022-11-20T14:32:48;14.30;99.90
29003;DHT22;16102;57.138;-2.118;2022-11-20T14:37:48;12.50;99.90
29003;DHT22;16102;57.138;-2.118;2022-11-20T14:40:23;11.60;99.90
29003;DHT22;16102;57.138;-2.118;2022-11-20T14:42:50;11.80;99.90
29003;DHT22;16102;57.138;-2.118;2022-11-20T14:45:18;11.30;99.90
29003;DHT22;16102;57.138;-2.118;2022-11-20T14:47:46;11.10;99.90
29003;DHT22;16102;57.138;-2.118;2022-11-20T14:50:24;10.70;99.90
29003;DHT22;16102;57.138;-2.118;2022-11-20T14:52:57;10.40;99.90
29003;DHT22;16102;57.138;-2.118;2022-11-20T14:55:34;10.40;99.90
29003;DHT22;16102;57.138;-2.118;2022-11-20T14:58:04;10.20;99.90
29003;DHT22;16102;57.138;-2.118;2022-11-20T15:00:33;10.00;99.90
29003;DHT22;16102;57.138;-2.118;2022-11-20T15:03:00;10.00;99.90
29003;DHT22;16102;57.138;-2.118;2022-11-20T15:06:00;9.80;99.90
29003;DHT22;16102;57.138;-2.118;2022-11-20T15:08:27;9.70;99.90
29003;DHT22;16102;57.138;-2.118;2022-11-20T15:10:54;9.60;99.90
29003;DHT22;16102;57.138;-2.118;2022-11-20T15:13:38;9.30;99.90
29003;DHT22;16102;57.138;-2.118;2022-11-20T15:16:18;9.20;99.90
29003;DHT22;16102;57.138;-2.118;2022-11-20T15:18:45;9.20;99.90
29003;DHT22;16102;57.138;-2.118;2022-11-20T15:21:18;9.00;99.90
29003;DHT22;16102;57.138;-2.118;2022-11-20T15:23:45;8.90;99.90
29003;DHT22;16102;57.138;-2.118;2022-11-20T15:26:14;8.90;99.90
29003;DHT22;16102;57.138;-2.118;2022-11-20T15:28:46;8.90;99.90
29003;DHT22;16102;57.138;-2.118;2022-11-20T15:31:16;8.80;99.90
29003;DHT22;16102;57.138;-2.118;2022-11-20T15:33:44;8.70;99.90
29003;DHT22;16102;57.138;-2.118;2022-11-20T15:36:11;8.70;99.90
29003;DHT22;16102;57.138;-2.118;2022-11-20T15:38:39;8.50;99.90
29003;DHT22;16102;57.138;-2.118;2022-11-20T15:41:06;8.60;99.90
29003;DHT22;16102;57.138;-2.118;2022-11-20T15:43:33;8.40;99.90
29003;DHT22;16102;57.138;-2.118;2022-11-20T15:46:03;8.30;99.90
29003;DHT22;16102;57.138;-2.118;2022-11-20T15:48:45;8.30;99.90
29003;DHT22;16102;57.138;-2.118;2022-11-20T15:51:35;8.40;99.90
29003;DHT22;16102;57.138;-2.118;2022-11-20T15:54:13;8.40;99.90
29003;DHT22;16102;57.138;-2.118;2022-11-20T15:56:41;8.40;99.90
29003;DHT22;16102;57.138;-2.118;2022-11-20T15:59:07;8.50;99.90
29003;DHT22;16102;57.138;-2.118;2022-11-20T16:01:34;8.60;99.90
29003;DHT22;16102;57.138;-2.118;2022-11-20T16:04:01;8.60;99.90
29003;DHT22;16102;57.138;-2.118;2022-11-20T16:06:28;8.60;99.90
29003;DHT22;16102;57.138;-2.118;2022-11-20T16:08:55;8.60;99.90
29003;DHT22;16102;57.138;-2.118;2022-11-20T16:11:22;8.60;99.90
29003;DHT22;16102;57.138;-2.118;2022-11-20T16:13:49;8.60;99.90
29003;DHT22;16102;57.138;-2.118;2022-11-20T16:16:36;8.60;99.90
29003;DHT22;16102;57.138;-2.118;2022-11-20T16:19:05;8.60;99.90
29003;DHT22;16102;57.138;-2.118;2022-11-20T16:21:32;8.60;99.90
29003;DHT22;16102;57.138;-2.118;2022-11-20T16:24:00;8.60;99.90
29003;DHT22;16102;57.138;-2.118;2022-11-20T16:26:28;8.60;99.90
29003;DHT22;16102;57.138;-2.118;2022-11-20T16:28:55;8.60;99.90
29003;DHT22;16102;57.138;-2.118;2022-11-20T16:31:22;8.60;99.90
29003;DHT22;16102;57.138;-2.118;2022-11-20T16:33:54;8.60;99.90
29003;DHT22;16102;57.138;-2.118;2022-11-20T16:36:22;8.60;99.90
29003;DHT22;16102;57.138;-2.118;2022-11-20T16:38:54;8.50;99.90
29003;DHT22;16102;57.138;-2.118;2022-11-20T16:41:22;8.50;99.90
29003;DHT22;16102;57.138;-2.118;2022-11-20T16:43:52;8.40;99.90
29003;DHT22;16102;57.138;-2.118;2022-11-20T16:46:21;8.10;99.90
29003;DHT22;16102;57.138;-2.118;2022-11-20T16:48:55;8.20;99.90
29003;DHT22;16102;57.138;-2.118;2022-11-20T16:51:23;8.20;99.90
29003;DHT22;16102;57.138;-2.118;2022-11-20T16:53:51;8.00;99.90
29003;DHT22;16102;57.138;-2.118;2022-11-20T16:56:20;7.90;99.90
29003;DHT22;16102;57.138;-2.118;2022-11-20T16:58:48;7.90;99.90
29003;DHT22;16102;57.138;-2.118;2022-11-20T17:01:18;7.80;99.90
29003;DHT22;16102;57.138;-2.118;2022-11-20T17:04:00;7.70;99.90
29003;DHT22;16102;57.138;-2.118;2022-11-20T17:06:29;7.70;99.90
29003;DHT22;16102;57.138;-2.118;2022-11-20T17:08:57;7.70;99.90
29003;DHT22;16102;57.138;-2.118;2022-11-20T17:11:26;7.80;99.90
29003;DHT22;16102;57.138;-2.118;2022-11-20T17:13:57;7.80;99.90
29003;DHT22;16102;57.138;-2.118;2022-11-20T17:16:26;7.80;99.90
29003;DHT22;16102;57.138;-2.118;2022-11-20T17:18:54;7.80;99.90
29003;DHT22;16102;57.138;-2.118;2022-11-20T17:21:28;7.80;99.90
29003;DHT22;16102;57.138;-2.118;2022-11-20T17:24:03;7.80;99.90
29003;DHT22;16102;57.138;-2.118;2022-11-20T17:26:30;7.70;99.90
29003;DHT22;16102;57.138;-2.118;2022-11-20T17:29:02;7.80;99.90
29003;DHT22;16102;57.138;-2.118;2022-11-20T17:31:31;7.70;99.90
29003;DHT22;16102;57.138;-2.118;2022-11-20T17:33:58;7.70;99.90
29003;DHT22;16102;57.138;-2.118;2022-11-20T17:36:28;7.70;99.90
29003;DHT22;16102;57.138;-2.118;2022-11-20T17:38:56;7.60;99.90
29003;DHT22;16102;57.138;-2.118;2022-11-20T17:41:25;7.60;99.90